sensor_id;sensor_type;location;lat;lon;timestamp;P1;durP1;ratioP1;P2;durP2;ratioP2
14817;SDS011;7500;57.698;11.986;2023-08-08T00:01:13;16.50;;;2.73;;
14817;SDS011;7500;57.698;11.986;2023-08-08T00:03:39;13.30;;;2.90;;
14817;SDS011;7500;57.698;11.986;2023-08-08T00:06:06;18.30;;;3.00;;
14817;SDS011;7500;57.698;11.986;2023-08-08T00:08:32;16.77;;;2.50;;
14817;SDS011;7500;57.698;11.986;2023-08-08T00:10:59;17.38;;;3.50;;
14817;SDS011;7500;57.698;11.986;2023-08-08T00:13:25;9.20;;;2.10;;
14817;SDS011;7500;57.698;11.986;2023-08-08T00:15:53;12.00;;;2.33;;
14817;SDS011;7500;57.698;11.986;2023-08-08T00:18:20;14.73;;;3.17;;
14817;SDS011;7500;57.698;11.986;2023-08-08T00:20:46;10.00;;;2.40;;
14817;SDS011;7500;57.698;11.986;2023-08-08T00:23:13;15.60;;;2.53;;
14817;SDS011;7500;57.698;11.986;2023-08-08T00:25:39;15.37;;;2.93;;
14817;SDS011;7500;57.698;11.986;2023-08-08T00:28:06;17.97;;;3.00;;
14817;SDS011;7500;57.698;11.986;2023-08-08T00:30:33;16.53;;;2.60;;
14817;SDS011;7500;57.698;11.986;2023-08-08T00:33:00;16.67;;;3.07;;
14817;SDS011;7500;57.698;11.986;2023-08-08T00:35:27;15.10;;;2.50;;
14817;SDS011;7500;57.698;11.986;2023-08-08T00:37:54;17.93;;;2.40;;
14817;SDS011;7500;57.698;11.986;2023-08-08T00:40:20;13.93;;;2.37;;
14817;SDS011;7500;57.698;11.986;2023-08-08T00:42:47;10.90;;;2.33;;
14817;SDS011;7500;57.698;11.986;2023-08-08T00:45:13;13.33;;;2.03;;
14817;SDS011;7500;57.698;11.986;2023-08-08T00:47:40;10.57;;;2.00;;
14817;SDS011;7500;57.698;11.986;2023-08-08T00:50:08;12.43;;;2.50;;
14817;SDS011;7500;57.698;11.986;2023-08-08T00:52:35;19.60;;;3.07;;
14817;SDS011;7500;57.698;11.986;2023-08-08T00:55:01;15.60;;;2.57;;
14817;SDS011;7500;57.698;11.986;2023-08-08T00:57:28;25.67;;;3.20;;
14817;SDS011;7500;57.698;11.986;2023-08-08T00:59:55;13.10;;;2.43;;
14817;SDS011;7500;57.698;11.986;2023-08-08T01:02:21;14.57;;;2.77;;
14817;SDS011;7500;57.698;11.986;2023-08-08T01:04:48;15.33;;;3.03;;
14817;SDS011;7500;57.698;11.986;2023-08-08T01:07:18;18.70;;;2.60;;
14817;SDS011;7500;57.698;11.986;2023-08-08T01:09:48;18.87;;;2.73;;
14817;SDS011;7500;57.698;11.986;2023-08-08T01:12:17;19.70;;;3.10;;
14817;SDS011;7500;57.698;11.986;2023-08-08T01:14:50;14.63;;;2.70;;
14817;SDS011;7500;57.698;11.986;2023-08-08T01:17:17;16.50;;;3.03;;
14817;SDS011;7500;57.698;11.986;2023-08-08T01:19:44;16.20;;;3.00;;
14817;SDS011;7500;57.698;11.986;2023-08-08T01:22:14;16.03;;;2.83;;
14817;SDS011;7500;57.698;11.986;2023-08-08T01:24:45;16.57;;;2.73;;
14817;SDS011;7500;57.698;11.986;2023-08-08T01:27:11;25.40;;;2.83;;
14817;SDS011;7500;57.698;11.986;2023-08-08T01:29:38;14.70;;;2.67;;
14817;SDS011;7500;57.698;11.986;2023-08-08T01:32:05;12.47;;;2.23;;
14817;SDS011;7500;57.698;11.986;2023-08-08T01:34:34;17.27;;;2.47;;
14817;SDS011;7500;57.698;11.986;2023-08-08T01:37:02;14.65;;;2.55;;
14817;SDS011;7500;57.698;11.986;2023-08-08T01:39:32;15.50;;;2.07;;
14817;SDS011;7500;57.698;11.986;2023-08-08T01:42:01;14.63;;;2.60;;
14817;SDS011;7500;57.698;11.986;2023-08-08T01:44:28;13.63;;;2.30;;
14817;SDS011;7500;57.698;11.986;2023-08-08T01:46:56;12.57;;;2.10;;
14817;SDS011;7500;57.698;11.986;2023-08-08T01:49:22;14.43;;;2.70;;
14817;SDS011;7500;57.698;11.986;2023-08-08T01:51:49;12.10;;;2.30;;
14817;SDS011;7500;57.698;11.986;2023-08-08T01:54:17;18.30;;;2.47;;
14817;SDS011;7500;57.698;11.986;2023-08-08T01:56:44;14.00;;;2.27;;
14817;SDS011;7500;57.698;11.986;2023-08-08T01:59:12;14.87;;;2.23;;
14817;SDS011;7500;57.698;11.986;2023-08-08T02:01:38;12.93;;;2.13;;
14817;SDS011;7500;57.698;11.986;2023-08-08T02:04:05;16.70;;;2.43;;
14817;SDS011;7500;57.698;11.986;2023-08-08T02:06:31;12.57;;;2.63;;
14817;SDS011;7500;57.698;11.986;2023-08-08T02:08:58;23.87;;;3.27;;
14817;SDS011;7500;57.698;11.986;2023-08-08T02:11:24;15.63;;;2.27;;
14817;SDS011;7500;57.698;11.986;2023-08-08T02:13:51;20.00;;;2.77;;
14817;SDS011;7500;57.698;11.986;2023-08-08T02:16:19;16.17;;;2.60;;
14817;SDS011;7500;57.698;11.986;2023-08-08T02:18:45;13.07;;;2.53;;
14817;SDS011;7500;57.698;11.986;2023-08-08T02:21:12;14.90;;;2.47;;
14817;SDS011;7500;57.698;11.986;2023-08-08T02:23:38;16.87;;;2.30;;
14817;SDS011;7500;57.698;11.986;2023-08-08T02:26:05;20.83;;;2.40;;
14817;SDS011;7500;57.698;11.986;2023-08-08T02:28:32;18.37;;;2.97;;
14817;SDS011;7500;57.698;11.986;2023-08-08T02:30:59;18.20;;;3.10;;
14817;SDS011;7500;57.698;11.986;2023-08-08T02:33:27;14.70;;;2.50;;
14817;SDS011;7500;57.698;11.986;2023-08-08T02:35:53;12.73;;;2.13;;
14817;SDS011;7500;57.698;11.986;2023-08-08T02:38:20;11.93;;;2.30;;
14817;SDS011;7500;57.698;11.986;2023-08-08T02:40:46;18.10;;;2.73;;
14817;SDS011;7500;57.698;11.986;2023-08-08T02:43:13;15.47;;;2.60;;
14817;SDS011;7500;57.698;11.986;2023-08-08T02:45:40;13.00;;;2.53;;
14817;SDS011;7500;57.698;11.986;2023-08-08T02:48:06;14.80;;;2.67;;
14817;SDS011;7500;57.698;11.986;2023-08-08T02:50:34;12.33;;;2.40;;
14817;SDS011;7500;57.698;11.986;2023-08-08T02:53:00;14.03;;;2.47;;
14817;SDS011;7500;57.698;11.986;2023-08-08T02:55:27;16.07;;;2.53;;
14817;SDS011;7500;57.698;11.986;2023-08-08T02:57:54;15.10;;;2.43;;
14817;SDS011;7500;57.698;11.986;2023-08-08T03:00:20;16.77;;;2.47;;
14817;SDS011;7500;57.698;11.986;2023-08-08T03:02:47;19.40;;;2.97;;
14817;SDS011;7500;57.698;11.986;2023-08-08T03:05:13;16.43;;;2.70;;
14817;SDS011;7500;57.698;11.986;2023-08-08T03:07:41;18.17;;;2.90;;
14817;SDS011;7500;57.698;11.986;2023-08-08T03:10:08;17.97;;;3.17;;
14817;SDS011;7500;57.698;11.986;2023-08-08T03:12:35;17.67;;;2.97;;
14817;SDS011;7500;57.698;11.986;2023-08-08T03:15:03;22.27;;;2.60;;
14817;SDS011;7500;57.698;11.986;2023-08-08T03:17:29;14.33;;;2.33;;
14817;SDS011;7500;57.698;11.986;2023-08-08T03:19:56;23.67;;;3.10;;
14817;SDS011;7500;57.698;11.986;2023-08-08T03:22:23;14.60;;;2.83;;
14817;SDS011;7500;57.698;11.986;2023-08-08T03:24:51;19.10;;;3.00;;
14817;SDS011;7500;57.698;11.986;2023-08-08T03:27:17;16.00;;;3.03;;
14817;SDS011;7500;57.698;11.986;2023-08-08T03:29:44;20.33;;;2.97;;
14817;SDS011;7500;57.698;11.986;2023-08-08T03:32:10;23.30;;;3.13;;
14817;SDS011;7500;57.698;11.986;2023-08-08T03:34:37;19.00;;;2.87;;
14817;SDS011;7500;57.698;11.986;2023-08-08T03:37:03;25.33;;;3.03;;
14817;SDS011;7500;57.698;11.986;2023-08-08T03:39:30;21.47;;;3.03;;
14817;SDS011;7500;57.698;11.986;2023-08-08T03:41:58;23.53;;;3.00;;
14817;SDS011;7500;57.698;11.986;2023-08-08T03:44:24;18.30;;;3.10;;
14817;SDS011;7500;57.698;11.986;2023-08-08T03:46:51;16.47;;;2.73;;
14817;SDS011;7500;57.698;11.986;2023-08-08T03:49:18;20.73;;;2.90;;
14817;SDS011;7500;57.698;11.986;2023-08-08T03:51:44;21.27;;;3.20;;
14817;SDS011;7500;57.698;11.986;2023-08-08T03:54:12;25.57;;;3.00;;
14817;SDS011;7500;57.698;11.986;2023-08-08T03:56:39;18.03;;;3.00;;
14817;SDS011;7500;57.698;11.986;2023-08-08T03:59:07;23.17;;;3.20;;
14817;SDS011;7500;57.698;11.986;2023-08-08T04:01:33;16.70;;;2.80;;
14817;SDS011;7500;57.698;11.986;2023-08-08T04:04:00;18.57;;;2.60;;
14817;SDS011;7500;57.698;11.986;2023-08-08T04:06:26;16.27;;;2.87;;
14817;SDS011;7500;57.698;11.986;2023-08-08T04:08:53;19.40;;;2.80;;
14817;SDS011;7500;57.698;11.986;2023-08-08T04:11:19;20.23;;;3.03;;
14817;SDS011;7500;57.698;11.986;2023-08-08T04:13:46;27.27;;;3.10;;
14817;SDS011;7500;57.698;11.986;2023-08-08T04:16:14;19.80;;;3.07;;
14817;SDS011;7500;57.698;11.986;2023-08-08T04:18:40;15.90;;;2.90;;
14817;SDS011;7500;57.698;11.986;2023-08-08T04:21:07;21.47;;;3.13;;
14817;SDS011;7500;57.698;11.986;2023-08-08T04:23:33;18.30;;;2.87;;
14817;SDS011;7500;57.698;11.986;2023-08-08T04:26:00;15.63;;;2.97;;
14817;SDS011;7500;57.698;11.986;2023-08-08T04:28:26;14.63;;;2.47;;
14817;SDS011;7500;57.698;11.986;2023-08-08T04:30:53;16.60;;;2.77;;
14817;SDS011;7500;57.698;11.986;2023-08-08T04:33:21;16.90;;;2.70;;
14817;SDS011;7500;57.698;11.986;2023-08-08T04:35:47;13.67;;;2.40;;
14817;SDS011;7500;57.698;11.986;2023-08-08T04:38:14;19.33;;;2.80;;
14817;SDS011;7500;57.698;11.986;2023-08-08T04:40:41;15.47;;;2.47;;
14817;SDS011;7500;57.698;11.986;2023-08-08T04:43:07;17.10;;;2.53;;
14817;SDS011;7500;57.698;11.986;2023-08-08T04:45:34;18.07;;;2.60;;
14817;SDS011;7500;57.698;11.986;2023-08-08T04:48:01;20.10;;;2.70;;
14817;SDS011;7500;57.698;11.986;2023-08-08T04:50:28;13.53;;;2.20;;
14817;SDS011;7500;57.698;11.986;2023-08-08T04:52:54;15.20;;;2.70;;
14817;SDS011;7500;57.698;11.986;2023-08-08T04:55:21;16.40;;;2.87;;
14817;SDS011;7500;57.698;11.986;2023-08-08T04:57:47;21.10;;;2.60;;
14817;SDS011;7500;57.698;11.986;2023-08-08T05:00:14;19.07;;;3.13;;
14817;SDS011;7500;57.698;11.986;2023-08-08T05:02:40;21.80;;;2.97;;
14817;SDS011;7500;57.698;11.986;2023-08-08T05:05:07;20.27;;;3.20;;
14817;SDS011;7500;57.698;11.986;2023-08-08T05:07:35;19.20;;;2.87;;
14817;SDS011;7500;57.698;11.986;2023-08-08T05:10:03;15.67;;;2.80;;
14817;SDS011;7500;57.698;11.986;2023-08-08T05:12:29;8.80;;;1.80;;
14817;SDS011;7500;57.698;11.986;2023-08-08T05:14:56;13.63;;;2.43;;
14817;SDS011;7500;57.698;11.986;2023-08-08T05:17:22;14.70;;;2.27;;
14817;SDS011;7500;57.698;11.986;2023-08-08T05:19:49;11.50;;;2.20;;
14817;SDS011;7500;57.698;11.986;2023-08-08T05:22:16;11.63;;;1.97;;
14817;SDS011;7500;57.698;11.986;2023-08-08T05:24:43;11.57;;;2.10;;
14817;SDS011;7500;57.698;11.986;2023-08-08T05:27:10;15.77;;;2.10;;
14817;SDS011;7500;57.698;11.986;2023-08-08T05:29:37;13.13;;;2.10;;
14817;SDS011;7500;57.698;11.986;2023-08-08T05:32:04;16.90;;;1.90;;
14817;SDS011;7500;57.698;11.986;2023-08-08T05:34:31;16.77;;;2.30;;
14817;SDS011;7500;57.698;11.986;2023-08-08T05:36:58;12.73;;;2.20;;
14817;SDS011;7500;57.698;11.986;2023-08-08T05:39:24;11.20;;;1.93;;
14817;SDS011;7500;57.698;11.986;2023-08-08T05:41:53;17.10;;;2.40;;
14817;SDS011;7500;57.698;11.986;2023-08-08T05:44:19;19.03;;;2.43;;
14817;SDS011;7500;57.698;11.986;2023-08-08T05:46:46;13.87;;;2.03;;
14817;SDS011;7500;57.698;11.986;2023-08-08T05:49:12;12.03;;;1.70;;
14817;SDS011;7500;57.698;11.986;2023-08-08T05:51:39;17.23;;;2.60;;
14817;SDS011;7500;57.698;11.986;2023-08-08T05:54:06;21.30;;;2.23;;
14817;SDS011;7500;57.698;11.986;2023-08-08T05:56:35;15.90;;;2.33;;
14817;SDS011;7500;57.698;11.986;2023-08-08T05:59:03;17.67;;;2.40;;
14817;SDS011;7500;57.698;11.986;2023-08-08T06:01:30;13.97;;;2.43;;
14817;SDS011;7500;57.698;11.986;2023-08-08T06:03:57;13.57;;;2.03;;
14817;SDS011;7500;57.698;11.986;2023-08-08T06:06:24;16.03;;;2.10;;
14817;SDS011;7500;57.698;11.986;2023-08-08T06:08:51;11.23;;;1.90;;
14817;SDS011;7500;57.698;11.986;2023-08-08T06:11:17;9.30;;;1.83;;
14817;SDS011;7500;57.698;11.986;2023-08-08T06:13:45;14.90;;;2.03;;
14817;SDS011;7500;57.698;11.986;2023-08-08T06:16:13;10.10;;;1.80;;
14817;SDS011;7500;57.698;11.986;2023-08-08T06:18:40;10.37;;;1.60;;
14817;SDS011;7500;57.698;11.986;2023-08-08T06:21:06;9.83;;;1.47;;
14817;SDS011;7500;57.698;11.986;2023-08-08T06:23:33;16.77;;;1.97;;
14817;SDS011;7500;57.698;11.986;2023-08-08T06:25:59;13.33;;;1.90;;
14817;SDS011;7500;57.698;11.986;2023-08-08T06:28:26;11.73;;;2.27;;
14817;SDS011;7500;57.698;11.986;2023-08-08T06:30:52;18.50;;;2.37;;
14817;SDS011;7500;57.698;11.986;2023-08-08T06:33:20;18.67;;;2.33;;
14817;SDS011;7500;57.698;11.986;2023-08-08T06:35:47;20.47;;;2.00;;
14817;SDS011;7500;57.698;11.986;2023-08-08T06:38:13;14.07;;;2.87;;
14817;SDS011;7500;57.698;11.986;2023-08-08T06:40:40;14.80;;;2.30;;
14817;SDS011;7500;57.698;11.986;2023-08-08T06:43:06;14.37;;;2.10;;
14817;SDS011;7500;57.698;11.986;2023-08-08T06:45:33;22.97;;;2.50;;
14817;SDS011;7500;57.698;11.986;2023-08-08T06:48:00;17.70;;;2.17;;
14817;SDS011;7500;57.698;11.986;2023-08-08T06:50:28;13.53;;;2.10;;
14817;SDS011;7500;57.698;11.986;2023-08-08T06:52:54;15.87;;;2.13;;
14817;SDS011;7500;57.698;11.986;2023-08-08T06:55:21;9.20;;;2.00;;
14817;SDS011;7500;57.698;11.986;2023-08-08T06:57:48;17.30;;;2.30;;
14817;SDS011;7500;57.698;11.986;2023-08-08T07:00:14;14.93;;;2.07;;
14817;SDS011;7500;57.698;11.986;2023-08-08T07:02:41;16.53;;;2.23;;
14817;SDS011;7500;57.698;11.986;2023-08-08T07:05:08;15.20;;;2.63;;
14817;SDS011;7500;57.698;11.986;2023-08-08T07:07:36;17.30;;;2.30;;
14817;SDS011;7500;57.698;11.986;2023-08-08T07:10:04;18.10;;;2.53;;
14817;SDS011;7500;57.698;11.986;2023-08-08T07:12:31;20.23;;;3.33;;
14817;SDS011;7500;57.698;11.986;2023-08-08T07:14:58;19.27;;;2.40;;
14817;SDS011;7500;57.698;11.986;2023-08-08T07:17:24;16.93;;;2.57;;
14817;SDS011;7500;57.698;11.986;2023-08-08T07:19:51;16.00;;;2.40;;
14817;SDS011;7500;57.698;11.986;2023-08-08T07:22:17;17.03;;;2.30;;
14817;SDS011;7500;57.698;11.986;2023-08-08T07:24:45;22.80;;;2.53;;
14817;SDS011;7500;57.698;11.986;2023-08-08T07:27:12;10.90;;;2.20;;
14817;SDS011;7500;57.698;11.986;2023-08-08T07:29:38;26.40;;;3.00;;
14817;SDS011;7500;57.698;11.986;2023-08-08T07:32:05;25.07;;;3.73;;
14817;SDS011;7500;57.698;11.986;2023-08-08T07:34:32;22.43;;;3.87;;
14817;SDS011;7500;57.698;11.986;2023-08-08T07:36:59;18.30;;;4.30;;
14817;SDS011;7500;57.698;11.986;2023-08-08T07:39:25;25.80;;;5.27;;
14817;SDS011;7500;57.698;11.986;2023-08-08T07:41:53;23.83;;;5.20;;
14817;SDS011;7500;57.698;11.986;2023-08-08T07:44:20;22.63;;;4.27;;
14817;SDS011;7500;57.698;11.986;2023-08-08T07:46:46;24.60;;;4.27;;
14817;SDS011;7500;57.698;11.986;2023-08-08T07:49:13;20.73;;;3.37;;
14817;SDS011;7500;57.698;11.986;2023-08-08T07:51:39;21.03;;;3.20;;
14817;SDS011;7500;57.698;11.986;2023-08-08T07:54:06;22.30;;;3.00;;
14817;SDS011;7500;57.698;11.986;2023-08-08T07:56:33;20.33;;;2.83;;
14817;SDS011;7500;57.698;11.986;2023-08-08T07:59:01;21.60;;;3.37;;
14817;SDS011;7500;57.698;11.986;2023-08-08T08:01:28;23.77;;;3.10;;
14817;SDS011;7500;57.698;11.986;2023-08-08T08:03:55;19.57;;;3.30;;
14817;SDS011;7500;57.698;11.986;2023-08-08T08:06:21;20.90;;;3.13;;
14817;SDS011;7500;57.698;11.986;2023-08-08T08:08:48;16.87;;;3.13;;
14817;SDS011;7500;57.698;11.986;2023-08-08T08:11:14;21.60;;;3.50;;
14817;SDS011;7500;57.698;11.986;2023-08-08T08:13:42;25.47;;;3.37;;
14817;SDS011;7500;57.698;11.986;2023-08-08T08:16:10;18.10;;;2.77;;
14817;SDS011;7500;57.698;11.986;2023-08-08T08:18:36;18.57;;;2.73;;
14817;SDS011;7500;57.698;11.986;2023-08-08T08:21:03;19.97;;;3.27;;
14817;SDS011;7500;57.698;11.986;2023-08-08T08:23:29;22.97;;;3.17;;
14817;SDS011;7500;57.698;11.986;2023-08-08T08:25:57;20.03;;;3.10;;
14817;SDS011;7500;57.698;11.986;2023-08-08T08:28:24;24.13;;;3.37;;
14817;SDS011;7500;57.698;11.986;2023-08-08T08:30:51;17.47;;;2.73;;
14817;SDS011;7500;57.698;11.986;2023-08-08T08:33:19;21.67;;;3.40;;
14817;SDS011;7500;57.698;11.986;2023-08-08T08:35:46;14.33;;;2.20;;
14817;SDS011;7500;57.698;11.986;2023-08-08T08:38:13;15.80;;;2.90;;
14817;SDS011;7500;57.698;11.986;2023-08-08T08:40:40;18.03;;;2.50;;
14817;SDS011;7500;57.698;11.986;2023-08-08T08:43:07;14.30;;;2.70;;
14817;SDS011;7500;57.698;11.986;2023-08-08T08:45:34;20.40;;;2.73;;
14817;SDS011;7500;57.698;11.986;2023-08-08T08:48:03;15.90;;;2.47;;
14817;SDS011;7500;57.698;11.986;2023-08-08T08:50:31;14.10;;;2.77;;
14817;SDS011;7500;57.698;11.986;2023-08-08T08:52:59;15.27;;;2.60;;
14817;SDS011;7500;57.698;11.986;2023-08-08T08:55:26;19.57;;;3.47;;
14817;SDS011;7500;57.698;11.986;2023-08-08T08:57:53;10.87;;;2.30;;
14817;SDS011;7500;57.698;11.986;2023-08-08T09:00:20;13.80;;;2.53;;
14817;SDS011;7500;57.698;11.986;2023-08-08T09:02:47;15.03;;;2.87;;
14817;SDS011;7500;57.698;11.986;2023-08-08T09:05:14;15.67;;;2.87;;
14817;SDS011;7500;57.698;11.986;2023-08-08T09:07:43;14.83;;;2.67;;
14817;SDS011;7500;57.698;11.986;2023-08-08T09:10:09;22.50;;;2.90;;
14817;SDS011;7500;57.698;11.986;2023-08-08T09:12:36;21.10;;;2.87;;
14817;SDS011;7500;57.698;11.986;2023-08-08T09:15:03;16.37;;;2.73;;
14817;SDS011;7500;57.698;11.986;2023-08-08T09:17:31;17.20;;;3.30;;
14817;SDS011;7500;57.698;11.986;2023-08-08T09:19:57;16.33;;;2.70;;
14817;SDS011;7500;57.698;11.986;2023-08-08T09:22:24;20.07;;;2.60;;
14817;SDS011;7500;57.698;11.986;2023-08-08T09:24:53;22.25;;;3.45;;
14817;SDS011;7500;57.698;11.986;2023-08-08T09:27:19;23.80;;;3.37;;
14817;SDS011;7500;57.698;11.986;2023-08-08T09:29:46;19.43;;;3.10;;
14817;SDS011;7500;57.698;11.986;2023-08-08T09:32:12;20.43;;;3.33;;
14817;SDS011;7500;57.698;11.986;2023-08-08T09:34:40;22.90;;;3.57;;
14817;SDS011;7500;57.698;11.986;2023-08-08T09:37:07;19.47;;;3.10;;
14817;SDS011;7500;57.698;11.986;2023-08-08T09:39:35;16.20;;;2.83;;
14817;SDS011;7500;57.698;11.986;2023-08-08T09:42:03;20.67;;;3.60;;
14817;SDS011;7500;57.698;11.986;2023-08-08T09:44:30;20.33;;;3.07;;
14817;SDS011;7500;57.698;11.986;2023-08-08T09:46:57;21.97;;;3.37;;
14817;SDS011;7500;57.698;11.986;2023-08-08T09:49:23;18.57;;;3.27;;
14817;SDS011;7500;57.698;11.986;2023-08-08T09:51:50;24.63;;;3.20;;
14817;SDS011;7500;57.698;11.986;2023-08-08T09:54:17;21.50;;;2.97;;
14817;SDS011;7500;57.698;11.986;2023-08-08T09:56:43;14.10;;;2.33;;
14817;SDS011;7500;57.698;11.986;2023-08-08T09:59:11;15.20;;;2.67;;
14817;SDS011;7500;57.698;11.986;2023-08-08T10:01:38;13.47;;;2.20;;
14817;SDS011;7500;57.698;11.986;2023-08-08T10:04:06;21.30;;;3.17;;
14817;SDS011;7500;57.698;11.986;2023-08-08T10:06:33;15.87;;;2.60;;
14817;SDS011;7500;57.698;11.986;2023-08-08T10:09:00;22.47;;;2.73;;
14817;SDS011;7500;57.698;11.986;2023-08-08T10:11:28;18.63;;;2.83;;
14817;SDS011;7500;57.698;11.986;2023-08-08T10:13:56;14.13;;;2.17;;
14817;SDS011;7500;57.698;11.986;2023-08-08T10:16:26;15.60;;;2.30;;
14817;SDS011;7500;57.698;11.986;2023-08-08T10:18:56;18.10;;;2.63;;
14817;SDS011;7500;57.698;11.986;2023-08-08T10:21:24;19.37;;;2.80;;
14817;SDS011;7500;57.698;11.986;2023-08-08T10:24:00;17.43;;;2.37;;
14817;SDS011;7500;57.698;11.986;2023-08-08T10:26:27;19.27;;;2.50;;
14817;SDS011;7500;57.698;11.986;2023-08-08T10:28:55;14.03;;;2.27;;
14817;SDS011;7500;57.698;11.986;2023-08-08T10:31:22;16.67;;;2.70;;
14817;SDS011;7500;57.698;11.986;2023-08-08T10:34:00;15.07;;;2.37;;
14817;SDS011;7500;57.698;11.986;2023-08-08T10:36:42;12.70;;;2.57;;
14817;SDS011;7500;57.698;11.986;2023-08-08T10:39:10;16.57;;;2.80;;
14817;SDS011;7500;57.698;11.986;2023-08-08T10:41:43;22.43;;;3.13;;
14817;SDS011;7500;57.698;11.986;2023-08-08T10:44:10;21.13;;;2.93;;
14817;SDS011;7500;57.698;11.986;2023-08-08T10:46:39;12.63;;;2.53;;
14817;SDS011;7500;57.698;11.986;2023-08-08T10:49:08;16.47;;;2.73;;
14817;SDS011;7500;57.698;11.986;2023-08-08T10:51:35;15.00;;;2.60;;
14817;SDS011;7500;57.698;11.986;2023-08-08T10:54:05;15.30;;;2.23;;
14817;SDS011;7500;57.698;11.986;2023-08-08T10:56:34;17.03;;;2.47;;
14817;SDS011;7500;57.698;11.986;2023-08-08T10:59:11;19.63;;;3.40;;
14817;SDS011;7500;57.698;11.986;2023-08-08T11:01:38;17.87;;;2.60;;
14817;SDS011;7500;57.698;11.986;2023-08-08T11:04:05;16.10;;;2.53;;
14817;SDS011;7500;57.698;11.986;2023-08-08T11:06:33;20.07;;;3.53;;
14817;SDS011;7500;57.698;11.986;2023-08-08T11:09:00;21.20;;;2.90;;
14817;SDS011;7500;57.698;11.986;2023-08-08T11:11:27;25.63;;;3.47;;
14817;SDS011;7500;57.698;11.986;2023-08-08T11:13:54;16.73;;;2.63;;
14817;SDS011;7500;57.698;11.986;2023-08-08T11:16:20;27.43;;;3.30;;
14817;SDS011;7500;57.698;11.986;2023-08-08T11:18:47;29.33;;;3.80;;
14817;SDS011;7500;57.698;11.986;2023-08-08T11:21:13;19.67;;;3.77;;
14817;SDS011;7500;57.698;11.986;2023-08-08T11:23:45;24.27;;;3.13;;
14817;SDS011;7500;57.698;11.986;2023-08-08T11:26:12;21.87;;;3.20;;
14817;SDS011;7500;57.698;11.986;2023-08-08T11:28:39;25.50;;;4.03;;
14817;SDS011;7500;57.698;11.986;2023-08-08T11:31:05;39.97;;;4.83;;
14817;SDS011;7500;57.698;11.986;2023-08-08T11:33:33;27.60;;;4.10;;
14817;SDS011;7500;57.698;11.986;2023-08-08T11:35:59;25.87;;;4.10;;
14817;SDS011;7500;57.698;11.986;2023-08-08T11:38:26;27.10;;;4.80;;
14817;SDS011;7500;57.698;11.986;2023-08-08T11:40:54;28.13;;;4.10;;
14817;SDS011;7500;57.698;11.986;2023-08-08T11:43:20;36.83;;;5.67;;
14817;SDS011;7500;57.698;11.986;2023-08-08T11:45:48;36.70;;;6.20;;
14817;SDS011;7500;57.698;11.986;2023-08-08T11:48:20;63.13;;;15.77;;
14817;SDS011;7500;57.698;11.986;2023-08-08T11:50:47;39.97;;;6.53;;
14817;SDS011;7500;57.698;11.986;2023-08-08T11:53:15;39.80;;;6.87;;
14817;SDS011;7500;57.698;11.986;2023-08-08T11:55:41;49.33;;;6.97;;
14817;SDS011;7500;57.698;11.986;2023-08-08T11:58:12;38.60;;;6.10;;
14817;SDS011;7500;57.698;11.986;2023-08-08T12:00:38;38.73;;;6.17;;
14817;SDS011;7500;57.698;11.986;2023-08-08T12:03:05;41.10;;;6.53;;
14817;SDS011;7500;57.698;11.986;2023-08-08T12:05:35;50.60;;;6.83;;
14817;SDS011;7500;57.698;11.986;2023-08-08T12:08:03;36.87;;;5.97;;
14817;SDS011;7500;57.698;11.986;2023-08-08T12:10:30;43.57;;;6.50;;
14817;SDS011;7500;57.698;11.986;2023-08-08T12:12:57;45.90;;;6.07;;
14817;SDS011;7500;57.698;11.986;2023-08-08T12:15:29;48.93;;;6.50;;
14817;SDS011;7500;57.698;11.986;2023-08-08T12:17:57;51.33;;;6.13;;
14817;SDS011;7500;57.698;11.986;2023-08-08T12:20:23;38.97;;;5.97;;
14817;SDS011;7500;57.698;11.986;2023-08-08T12:22:53;37.27;;;5.73;;
14817;SDS011;7500;57.698;11.986;2023-08-08T12:25:19;28.20;;;4.80;;
14817;SDS011;7500;57.698;11.986;2023-08-08T12:27:46;44.93;;;5.70;;
14817;SDS011;7500;57.698;11.986;2023-08-08T12:30:13;47.20;;;5.90;;
14817;SDS011;7500;57.698;11.986;2023-08-08T12:32:40;34.60;;;5.30;;
14817;SDS011;7500;57.698;11.986;2023-08-08T12:35:07;36.57;;;5.53;;
14817;SDS011;7500;57.698;11.986;2023-08-08T12:37:34;38.83;;;6.67;;
14817;SDS011;7500;57.698;11.986;2023-08-08T12:40:00;44.87;;;6.10;;
14817;SDS011;7500;57.698;11.986;2023-08-08T12:42:28;38.97;;;5.90;;
14817;SDS011;7500;57.698;11.986;2023-08-08T12:44:54;42.60;;;6.37;;
14817;SDS011;7500;57.698;11.986;2023-08-08T12:47:21;41.10;;;5.53;;
14817;SDS011;7500;57.698;11.986;2023-08-08T12:49:49;38.07;;;5.60;;
14817;SDS011;7500;57.698;11.986;2023-08-08T12:52:15;42.20;;;5.53;;
14817;SDS011;7500;57.698;11.986;2023-08-08T12:54:42;35.13;;;5.50;;
14817;SDS011;7500;57.698;11.986;2023-08-08T12:57:09;31.27;;;4.67;;
14817;SDS011;7500;57.698;11.986;2023-08-08T12:59:35;42.00;;;5.97;;
14817;SDS011;7500;57.698;11.986;2023-08-08T13:02:02;49.90;;;7.00;;
14817;SDS011;7500;57.698;11.986;2023-08-08T13:04:28;40.13;;;5.87;;
14817;SDS011;7500;57.698;11.986;2023-08-08T13:06:56;44.50;;;6.10;;
14817;SDS011;7500;57.698;11.986;2023-08-08T13:09:24;37.50;;;5.80;;
14817;SDS011;7500;57.698;11.986;2023-08-08T13:11:50;33.83;;;5.33;;
14817;SDS011;7500;57.698;11.986;2023-08-08T13:14:17;49.87;;;6.63;;
14817;SDS011;7500;57.698;11.986;2023-08-08T13:16:43;35.33;;;5.80;;
14817;SDS011;7500;57.698;11.986;2023-08-08T13:19:11;37.90;;;6.43;;
14817;SDS011;7500;57.698;11.986;2023-08-08T13:21:37;45.40;;;6.47;;
14817;SDS011;7500;57.698;11.986;2023-08-08T13:24:06;40.47;;;6.07;;
14817;SDS011;7500;57.698;11.986;2023-08-08T13:26:33;41.63;;;5.93;;
14817;SDS011;7500;57.698;11.986;2023-08-08T13:29:00;51.17;;;7.27;;
14817;SDS011;7500;57.698;11.986;2023-08-08T13:31:26;34.20;;;5.70;;
14817;SDS011;7500;57.698;11.986;2023-08-08T13:33:53;43.23;;;5.60;;
14817;SDS011;7500;57.698;11.986;2023-08-08T13:36:20;32.87;;;5.73;;
14817;SDS011;7500;57.698;11.986;2023-08-08T13:38:46;35.00;;;5.63;;
14817;SDS011;7500;57.698;11.986;2023-08-08T13:41:14;38.13;;;5.73;;
14817;SDS011;7500;57.698;11.986;2023-08-08T13:43:41;46.00;;;5.63;;
14817;SDS011;7500;57.698;11.986;2023-08-08T13:46:07;37.10;;;6.10;;
14817;SDS011;7500;57.698;11.986;2023-08-08T13:48:34;47.83;;;6.33;;
14817;SDS011;7500;57.698;11.986;2023-08-08T13:51:01;46.53;;;5.93;;
14817;SDS011;7500;57.698;11.986;2023-08-08T13:53:28;46.50;;;7.50;;
14817;SDS011;7500;57.698;11.986;2023-08-08T13:55:54;43.73;;;6.43;;
14817;SDS011;7500;57.698;11.986;2023-08-08T13:58:22;37.47;;;5.83;;
14817;SDS011;7500;57.698;11.986;2023-08-08T14:00:49;29.97;;;5.27;;
14817;SDS011;7500;57.698;11.986;2023-08-08T14:03:15;42.13;;;5.70;;
14817;SDS011;7500;57.698;11.986;2023-08-08T14:05:42;35.23;;;5.33;;
14817;SDS011;7500;57.698;11.986;2023-08-08T14:08:08;38.57;;;5.57;;
14817;SDS011;7500;57.698;11.986;2023-08-08T14:10:35;36.17;;;5.60;;
14817;SDS011;7500;57.698;11.986;2023-08-08T14:13:02;35.30;;;5.90;;
14817;SDS011;7500;57.698;11.986;2023-08-08T14:15:31;45.13;;;5.63;;
14817;SDS011;7500;57.698;11.986;2023-08-08T14:17:58;37.23;;;5.60;;
14817;SDS011;7500;57.698;11.986;2023-08-08T14:20:25;31.40;;;5.37;;
14817;SDS011;7500;57.698;11.986;2023-08-08T14:22:52;41.00;;;6.03;;
14817;SDS011;7500;57.698;11.986;2023-08-08T14:25:18;35.70;;;5.80;;
14817;SDS011;7500;57.698;11.986;2023-08-08T14:27:45;37.13;;;5.43;;
14817;SDS011;7500;57.698;11.986;2023-08-08T14:30:12;38.57;;;5.77;;
14817;SDS011;7500;57.698;11.986;2023-08-08T14:32:40;43.83;;;5.80;;
14817;SDS011;7500;57.698;11.986;2023-08-08T14:35:07;38.53;;;5.70;;